aviador You're here:

EPMO Decoded Metar

in
Report Time2017-09-20 07:00:00
UTC Time2017-09-20 07:33:22
Flight Rules vfr VFR
Wind040° at 05 kt
W.Decomp.*RWY 08: 3.8 kt HW 3.2 kt LCW
W.Rank040° ranks 32
Current wind is below 040° avg. (5.8)
Visibility9999 m
Phenomena:Light Rain
Clouds:N/A
Expected CloudBase > 400 ft AGL from Temp-Dew spread
CeilingNone
Temp12°C
Dew Point11°C (94% RH)
AAT10.5°C
QNH1016 hPa
Raw Report
EPMO 200700Z 04005KT 9999 -RA NSC 12/11 Q1016=

Extra information for EPMO:More info

Social comments